Time;durP1;ratioP1;P1;durP2;ratioP2;P2;SDS_P1;SDS_P2;PMS_P1;PMS_P2;Temp;Humidity;BMP_temperature;BMP_pressure;BME280_temperature;BME280_humidity;BME280_pressure;Samples;Min_cycle;Max_cycle;Signal;HPM_P1;HPM_P2
2021/01/30 00:01:54;;;;;;;12.40;2.65;;;;;;;7.25;71.09;98430.94;4989491;28;20077;-81
2021/01/30 00:04:21;;;;;;;14.80;3.33;;;;;;;6.55;73.25;98430.13;5014274;28;20069;-82
2021/01/30 00:06:52;;;;;;;13.15;3.28;;;;;;;6.69;73.07;98426.50;5010700;28;20045;-80
2021/01/30 00:09:21;;;;;;;12.23;3.60;;;;;;;6.26;73.82;98421.81;5028295;28;20049;-81
2021/01/30 00:11:49;;;;;;;21.80;3.53;;;;;;;6.49;72.61;98427.59;5013447;28;20206;-82
2021/01/30 00:14:21;;;;;;;9.38;3.10;;;;;;;6.05;75.26;98420.28;5020687;28;20053;-81
2021/01/30 00:16:47;;;;;;;9.48;2.88;;;;;;;6.20;73.33;98416.66;5009862;28;20058;-82
2021/01/30 00:19:15;;;;;;;8.02;2.35;;;;;;;6.26;73.34;98418.34;5018658;28;20373;-81
2021/01/30 00:21:48;;;;;;;12.50;2.50;;;;;;;6.51;72.24;98417.22;4997151;28;20245;-81
2021/01/30 00:24:14;;;;;;;7.55;1.48;;;;;;;5.58;75.04;98412.91;5029842;28;20054;-80
2021/01/30 00:26:41;;;;;;;16.20;1.80;;;;;;;6.05;73.25;98416.81;5008563;28;20139;-81
2021/01/30 00:29:07;;;;;;;7.97;1.98;;;;;;;6.00;72.68;98409.09;5030319;28;20157;-82
2021/01/30 00:31:34;;;;;;;9.73;2.20;;;;;;;6.01;73.18;98415.13;4995139;28;20750;-81
2021/01/30 00:34:01;;;;;;;10.98;1.90;;;;;;;5.90;73.38;98404.03;5016805;28;20053;-81
2021/01/30 00:36:28;;;;;;;8.10;1.83;;;;;;;5.86;73.73;98405.75;5001008;28;20044;-81
2021/01/30 00:38:55;;;;;;;14.85;1.90;;;;;;;6.14;73.27;98406.34;5015480;28;20056;-81
2021/01/30 00:41:21;;;;;;;13.63;2.67;;;;;;;5.83;73.71;98398.00;5013657;28;20156;-81
2021/01/30 00:43:48;;;;;;;15.32;2.50;;;;;;;5.98;74.07;98397.91;5013604;28;20080;-80
2021/01/30 00:46:14;;;;;;;12.38;2.75;;;;;;;5.88;74.19;98400.59;5004082;28;20045;-81
2021/01/30 00:49:30;;;;;;;11.57;2.92;;;;;;;5.67;73.93;98396.41;5008562;28;20045;-81
2021/01/30 00:52:47;;;;;;;13.52;2.53;;;;;;;6.11;72.35;98388.25;4993651;28;20049;-80
2021/01/30 00:55:51;;;;;;;13.02;3.10;;;;;;;5.89;72.43;98405.75;4997139;28;20045;-81
2021/01/30 00:58:51;;;;;;;7.93;2.40;;;;;;;5.90;72.95;98397.09;4988980;28;20226;-81
2021/01/30 01:01:18;;;;;;;11.00;2.22;;;;;;;6.03;72.94;98387.47;4995909;28;20140;-80
2021/01/30 01:03:44;;;;;;;16.38;2.45;;;;;;;5.62;72.75;98396.47;4992882;28;20076;-80
2021/01/30 01:06:57;;;;;;;11.00;2.72;;;;;;;5.72;73.08;98379.09;4997067;28;20140;-81
2021/01/30 01:09:42;;;;;;;;;;;;;;;5.90;72.75;98372.94;4949122;28;20564;-81
2021/01/30 01:12:09;;;;;;;11.50;2.45;;;;;;;5.88;72.48;98365.16;4968788;28;20524;-81
2021/01/30 01:14:36;;;;;;;16.73;2.55;;;;;;;5.63;72.57;98364.50;4948270;28;20169;-81
2021/01/30 01:17:49;;;;;;;15.63;3.13;;;;;;;5.84;72.29;98371.22;4951867;28;20642;-81
2021/01/30 01:21:12;;;;;;;14.77;2.47;;;;;;;5.93;71.45;98365.97;4895299;29;20060;-81
2021/01/30 01:23:42;;;;;;;;;;;;;;;5.90;71.28;98367.75;4803784;29;20069;-80
2021/01/30 01:26:09;;;;;;;17.23;2.53;;;;;;;5.99;71.87;98365.94;4792805;29;19924;-80
2021/01/30 01:28:36;;;;;;;22.85;2.35;;;;;;;6.00;71.48;98365.03;4799757;29;20046;-81
2021/01/30 01:31:06;;;;;;;10.25;2.30;;;;;;;6.26;70.41;98366.47;4803168;29;20046;-80
2021/01/30 01:33:33;;;;;;;11.10;2.22;;;;;;;6.45;69.19;98378.34;4800384;29;20474;-81
2021/01/30 01:36:43;;;;;;;15.95;2.65;;;;;;;5.94;72.10;98369.44;4807187;29;20483;-81
2021/01/30 01:39:46;;;;;;;15.93;2.50;;;;;;;6.19;70.66;98364.84;4788557;29;20058;-80
2021/01/30 01:42:54;;;;;;;8.68;2.17;;;;;;;6.34;70.20;98375.03;4799980;29;20061;-81
2021/01/30 01:45:57;;;;;;;14.35;2.55;;;;;;;6.59;68.39;98376.44;4792948;29;20046;-80
2021/01/30 01:48:29;;;;;;;9.07;2.42;;;;;;;6.26;69.41;98364.75;4819083;29;20563;-80
2021/01/30 01:50:57;;;;;;;13.70;3.60;;;;;;;6.12;70.39;98356.28;4851849;29;21669;-80
2021/01/30 01:53:30;;;;;;;7.47;2.60;;;;;;;6.21;70.10;98357.91;4867815;29;20037;-80
2021/01/30 01:56:06;;;;;;;15.90;3.58;;;;;;;6.09;70.12;98356.31;4878629;29;20052;-80
2021/01/30 01:58:38;;;;;;;16.35;3.20;;;;;;;5.60;71.42;98355.91;4867395;29;20488;-81
2021/01/30 02:01:05;;;;;;;;;;;;;;;6.04;70.64;98360.69;5002207;28;20069;-80
2021/01/30 02:03:32;;;;;;;13.93;2.95;;;;;;;6.14;70.64;98365.72;5021525;28;19933;-80
2021/01/30 02:06:01;;;;;;;16.88;3.15;;;;;;;6.25;69.49;98365.63;5015563;28;20137;-80
2021/01/30 02:08:29;;;;;;;18.27;2.83;;;;;;;6.13;70.48;98352.81;5020691;28;20484;-81
2021/01/30 02:10:57;;;;;;;18.40;3.28;;;;;;;5.93;70.55;98352.16;5016043;28;20049;-80
2021/01/30 02:13:44;;;;;;;11.05;3.03;;;;;;;6.43;68.91;98344.63;5021976;28;20061;-80
2021/01/30 02:16:22;;;;;;;8.65;2.90;;;;;;;5.81;69.86;98347.03;4999104;28;20500;-80
2021/01/30 02:19:07;;;;;;;16.40;3.22;;;;;;;5.78;69.85;98332.41;5018332;28;20056;-80
2021/01/30 02:21:58;;;;;;;13.77;3.75;;;;;;;5.62;71.10;98339.47;5014392;28;20175;-80
2021/01/30 02:24:54;;;;;;;15.52;3.45;;;;;;;5.89;70.02;98338.38;5029534;28;20053;-80
2021/01/30 02:27:52;;;;;;;13.38;3.10;;;;;;;5.32;71.06;98337.16;4983226;28;20136;-80
2021/01/30 02:30:38;;;;;;;15.35;2.92;;;;;;;5.92;69.61;98337.47;5019701;28;20080;-80
2021/01/30 02:33:28;;;;;;;21.33;4.32;;;;;;;6.20;68.16;98330.25;5015701;28;20045;-80
2021/01/30 02:36:19;;;;;;;12.00;3.08;;;;;;;5.79;69.37;98328.09;5027386;28;20057;-79
2021/01/30 02:39:19;;;;;;;18.10;4.75;;;;;;;6.17;68.61;98330.28;5016176;28;20100;-79
2021/01/30 02:42:00;;;;;;;12.20;3.20;;;;;;;5.77;68.30;98317.72;5011879;28;20180;-80
2021/01/30 02:44:34;;;;;;;11.30;3.20;;;;;;;6.08;67.87;98324.34;5020293;28;20329;-80
2021/01/30 02:47:01;;;;;;;18.92;2.97;;;;;;;5.88;68.11;98326.28;5014946;28;20046;-80
2021/01/30 02:49:35;;;;;;;12.82;2.90;;;;;;;5.74;68.48;98325.53;5021186;28;20064;-79
2021/01/30 02:52:10;;;;;;;15.35;3.30;;;;;;;5.84;68.83;98318.53;5016135;28;20073;-80
2021/01/30 02:54:37;;;;;;;12.68;3.00;;;;;;;5.94;67.65;98321.03;5026325;28;20533;-80
2021/01/30 02:57:14;;;;;;;13.25;2.88;;;;;;;5.64;68.54;98323.91;5031743;28;20061;-80
2021/01/30 02:59:49;;;;;;;9.35;2.70;;;;;;;6.31;66.74;98320.59;5035548;28;20057;-79
2021/01/30 03:02:19;;;;;;;9.00;2.30;;;;;;;5.70;68.08;98321.28;5015868;28;20614;-80
2021/01/30 03:04:46;;;;;;;12.70;2.30;;;;;;;5.64;68.65;98316.13;5018534;28;20061;-79
2021/01/30 03:07:24;;;;;;;15.50;3.30;;;;;;;5.84;68.15;98316.81;5022968;28;20054;-80
2021/01/30 03:10:03;;;;;;;8.63;2.60;;;;;;;5.50;68.34;98325.78;5016835;28;20045;-80
2021/01/30 03:12:48;;;;;;;10.63;2.50;;;;;;;5.66;68.38;98315.22;5021170;28;20058;-80
2021/01/30 03:15:44;;;;;;;13.30;2.10;;;;;;;6.28;67.24;98315.47;5030989;28;20115;-80
2021/01/30 03:18:14;;;;;;;9.50;2.30;;;;;;;6.28;67.46;98305.97;5014008;28;20115;-79
2021/01/30 03:20:43;;;;;;;17.60;2.80;;;;;;;6.28;66.74;98303.38;5017673;28;20550;-79
2021/01/30 03:23:16;;;;;;;14.60;2.45;;;;;;;5.75;69.21;98303.09;5010916;28;20089;-81
2021/01/30 03:25:43;;;;;;;9.05;2.35;;;;;;;5.82;68.44;98302.13;5001768;28;20065;-79
2021/01/30 03:28:11;;;;;;;11.23;2.20;;;;;;;6.14;67.97;98294.88;5019891;28;20045;-80
2021/01/30 03:30:38;;;;;;;11.45;2.33;;;;;;;5.21;70.15;98300.13;5009509;28;20061;-80
2021/01/30 03:33:06;;;;;;;9.35;2.60;;;;;;;6.06;68.15;98302.75;5018834;28;20140;-79
2021/01/30 03:35:33;;;;;;;7.40;2.40;;;;;;;5.61;68.44;98292.88;5013928;28;20057;-80
2021/01/30 03:38:00;;;;;;;13.60;2.50;;;;;;;6.18;67.44;98298.31;5019868;28;20481;-80
2021/01/30 03:40:26;;;;;;;15.10;2.65;;;;;;;5.38;69.81;98297.38;5018365;28;20055;-79
2021/01/30 03:42:54;;;;;;;10.23;2.42;;;;;;;5.60;68.82;98286.81;5017689;28;20557;-79
2021/01/30 03:45:25;;;;;;;21.25;2.72;;;;;;;6.17;67.09;98294.84;5017676;28;20083;-79
2021/01/30 03:47:52;;;;;;;21.27;2.75;;;;;;;5.81;67.78;98290.91;5001418;28;20120;-79
2021/01/30 03:50:19;;;;;;;10.82;2.13;;;;;;;5.74;68.33;98291.00;5016240;28;20054;-80
2021/01/30 03:52:46;;;;;;;5.65;1.88;;;;;;;5.50;68.63;98287.78;5002466;28;20042;-80
2021/01/30 03:55:13;;;;;;;14.57;2.20;;;;;;;5.64;67.80;98292.81;5017287;28;20107;-79
2021/01/30 03:57:40;;;;;;;10.02;1.98;;;;;;;6.20;66.67;98286.16;5017152;28;20399;-79
2021/01/30 04:00:10;;;;;;;13.07;1.75;;;;;;;5.59;68.36;98271.28;5015386;28;20053;-79
2021/01/30 04:02:36;;;;;;;6.40;1.98;;;;;;;5.73;67.95;98279.78;4998218;28;20631;-80
2021/01/30 04:05:04;;;;;;;17.38;2.58;;;;;;;5.68;68.86;98269.47;4998773;28;20133;-79
2021/01/30 04:07:30;;;;;;;9.38;1.88;;;;;;;5.78;67.84;98274.53;5019385;28;20061;-77
2021/01/30 04:09:57;;;;;;;11.35;2.03;;;;;;;5.79;68.23;98266.75;5016005;28;20460;-78
2021/01/30 04:12:23;;;;;;;10.23;2.13;;;;;;;6.14;66.69;98259.44;5015029;28;20049;-78
2021/01/30 04:14:50;;;;;;;11.88;1.92;;;;;;;5.65;67.75;98261.72;5018674;28;20049;-78
2021/01/30 04:17:16;;;;;;;9.18;1.90;;;;;;;5.78;67.86;98252.06;4996055;28;20081;-79
2021/01/30 04:19:43;;;;;;;8.93;2.17;;;;;;;5.50;68.93;98258.44;5018986;28;20053;-78
2021/01/30 04:22:10;;;;;;;10.43;2.20;;;;;;;5.46;70.03;98249.84;5017050;28;20053;-80
2021/01/30 04:24:36;;;;;;;10.23;1.92;;;;;;;5.34;69.13;98249.09;5017581;28;20072;-80
2021/01/30 04:27:03;;;;;;;7.45;1.92;;;;;;;5.42;68.83;98245.53;4997411;28;20049;-78
2021/01/30 04:29:29;;;;;;;8.40;1.90;;;;;;;5.36;69.44;98252.53;5015678;28;20073;-78
2021/01/30 04:31:59;;;;;;;7.95;2.10;;;;;;;5.31;69.51;98239.63;5029955;28;20045;-78
2021/01/30 04:34:25;;;;;;;8.85;1.58;;;;;;;5.14;70.38;98242.38;5020107;28;20045;-77
2021/01/30 04:36:52;;;;;;;14.35;2.25;;;;;;;5.05;70.70;98247.63;5009108;28;20041;-78
2021/01/30 04:39:18;;;;;;;9.57;2.22;;;;;;;5.40;70.09;98234.38;5032534;28;20404;-78
2021/01/30 04:41:55;;;;;;;9.52;1.48;;;;;;;4.93;70.48;98234.81;5012986;28;20504;-79
2021/01/30 04:44:41;;;;;;;8.25;1.50;;;;;;;5.31;69.96;98229.28;5018005;28;20107;-79
2021/01/30 04:47:14;;;;;;;21.95;2.00;;;;;;;5.46;69.21;98238.63;5024888;28;20057;-78
2021/01/30 04:50:08;;;;;;;10.30;1.77;;;;;;;4.81;71.08;98234.91;5018814;28;20077;-78
2021/01/30 04:52:52;;;;;;;9.30;2.30;;;;;;;5.39;69.91;98236.97;5023746;28;20049;-78
2021/01/30 04:55:48;;;;;;;15.35;2.05;;;;;;;5.34;69.70;98225.78;5015957;28;20079;-77
2021/01/30 04:59:02;;;;;;;16.15;2.60;;;;;;;5.47;69.26;98232.53;5015003;28;20524;-78
2021/01/30 05:01:56;;;;;;;12.05;2.03;;;;;;;6.09;67.62;98229.28;5002657;28;20160;-78
2021/01/30 05:04:35;;;;;;;9.95;2.05;;;;;;;5.78;69.13;98233.06;5013274;28;20060;-78
2021/01/30 05:07:27;;;;;;;11.45;2.08;;;;;;;5.79;68.71;98221.84;5018398;28;20103;-78
2021/01/30 05:10:00;;;;;;;11.93;1.77;;;;;;;5.06;70.65;98228.66;5030373;28;20469;-78
2021/01/30 05:12:35;;;;;;;7.75;1.45;;;;;;;5.22;69.77;98217.28;5014495;28;20044;-78
2021/01/30 05:15:27;;;;;;;13.13;1.58;;;;;;;4.86;71.00;98220.19;5012701;28;20103;-78
2021/01/30 05:18:03;;;;;;;8.88;2.00;;;;;;;5.16;69.61;98217.34;5014934;28;20480;-78
2021/01/30 05:20:36;;;;;;;10.98;1.35;;;;;;;5.22;69.90;98222.47;5018398;28;20139;-78
2021/01/30 05:23:05;;;;;;;11.00;1.70;;;;;;;5.39;68.64;98217.09;5012741;28;20392;-79
2021/01/30 05:25:32;;;;;;;8.50;1.33;;;;;;;5.05;69.48;98216.56;5024449;28;20045;-77
2021/01/30 05:28:18;;;;;;;10.25;1.10;;;;;;;5.52;68.48;98217.81;5014644;28;20144;-78
2021/01/30 05:30:57;;;;;;;6.35;1.42;;;;;;;5.30;68.88;98211.16;5016592;28;20115;-77
2021/01/30 05:33:56;;;;;;;14.07;1.50;;;;;;;5.17;69.48;98213.03;5019999;28;20064;-78
2021/01/30 05:36:31;;;;;;;12.35;1.30;;;;;;;5.06;69.24;98209.66;5017198;28;20102;-78
2021/01/30 05:39:16;;;;;;;10.00;1.05;;;;;;;4.90;70.45;98208.94;5010464;28;20192;-78
2021/01/30 05:42:00;;;;;;;8.45;1.50;;;;;;;5.17;70.10;98206.13;5016146;28;20057;-79
2021/01/30 05:44:46;;;;;;;8.30;1.63;;;;;;;5.61;68.73;98205.63;5013442;28;20050;-79
2021/01/30 05:47:32;;;;;;;7.63;1.48;;;;;;;5.09;69.88;98199.28;5029439;28;20112;-76
2021/01/30 05:50:02;;;;;;;6.00;1.10;;;;;;;5.45;68.94;98198.06;5023837;28;20149;-78
2021/01/30 05:52:33;;;;;;;8.35;1.33;;;;;;;5.15;69.64;98186.28;5019710;28;20111;-77
2021/01/30 05:55:00;;;;;;;6.13;1.33;;;;;;;5.66;68.32;98197.78;5014875;28;20357;-77
2021/01/30 05:57:27;;;;;;;11.60;1.25;;;;;;;5.20;69.51;98193.13;5016915;28;20485;-77
2021/01/30 05:59:59;;;;;;;10.32;2.17;;;;;;;5.31;69.16;98189.59;5012095;28;20057;-77
2021/01/30 06:02:29;;;;;;;11.20;1.40;;;;;;;4.75;71.21;98190.97;5017357;28;20085;-78
2021/01/30 06:04:57;;;;;;;14.70;1.70;;;;;;;5.65;68.14;98190.91;5005578;28;20095;-77
2021/01/30 06:07:35;;;;;;;6.70;1.80;;;;;;;5.36;68.76;98190.38;5031784;28;20054;-78
2021/01/30 06:10:27;;;;;;;15.27;1.77;;;;;;;5.09;69.73;98192.38;5013835;28;20484;-80
2021/01/30 06:13:26;;;;;;;13.50;1.73;;;;;;;5.05;69.98;98195.88;5028768;28;20393;-78
2021/01/30 06:15:56;;;;;;;15.20;1.45;;;;;;;5.12;70.06;98187.19;4968342;28;25038;-77
2021/01/30 06:18:39;;;;;;;11.05;1.40;;;;;;;5.17;69.11;98189.72;4975700;28;20076;-77
2021/01/30 06:21:19;;;;;;;6.68;1.60;;;;;;;5.65;67.95;98178.81;4954861;28;20050;-78
2021/01/30 06:24:11;;;;;;;5.13;0.90;;;;;;;5.18;68.64;98181.94;4960257;28;20702;-77
2021/01/30 06:26:47;;;;;;;8.15;1.45;;;;;;;5.01;69.23;98190.75;4967206;28;20149;-77
2021/01/30 06:29:28;;;;;;;20.85;2.65;;;;;;;5.86;67.02;98188.03;4971459;28;20824;-78
2021/01/30 06:32:03;;;;;;;6.07;1.10;;;;;;;5.60;67.48;98193.56;4966067;28;20069;-78
2021/01/30 06:34:36;;;;;;;13.95;1.52;;;;;;;5.62;67.72;98181.44;4944816;28;20081;-78
2021/01/30 06:37:09;;;;;;;10.18;1.48;;;;;;;5.66;67.37;98190.88;4971923;28;20046;-78
2021/01/30 06:39:41;;;;;;;9.30;1.35;;;;;;;5.40;68.32;98190.34;4972655;28;20050;-77
2021/01/30 06:42:15;;;;;;;11.13;0.93;;;;;;;5.56;67.17;98189.28;4959247;28;20124;-77
2021/01/30 06:44:42;;;;;;;6.13;1.20;;;;;;;5.10;68.62;98186.34;4960808;28;20512;-77
2021/01/30 06:47:17;;;;;;;8.90;1.40;;;;;;;5.33;68.18;98180.03;4972411;28;20500;-78
2021/01/30 06:49:45;;;;;;;12.10;2.35;;;;;;;4.82;69.78;98184.88;4975743;28;20053;-77
2021/01/30 06:52:22;;;;;;;13.85;1.58;;;;;;;4.86;70.24;98188.28;4991564;28;20136;-77
2021/01/30 06:55:15;;;;;;;11.98;1.40;;;;;;;5.28;68.75;98180.97;5017048;28;20058;-78
2021/01/30 06:57:59;;;;;;;10.77;1.20;;;;;;;4.92;69.59;98188.25;5025708;28;20576;-77
2021/01/30 07:00:30;;;;;;;11.18;1.38;;;;;;;4.80;70.56;98181.44;5029601;28;20171;-77
2021/01/30 07:03:13;;;;;;;9.65;1.30;;;;;;;5.15;69.85;98187.16;5012569;28;20636;-78
2021/01/30 07:06:06;;;;;;;12.25;1.75;;;;;;;5.05;69.47;98184.66;5014717;28;20041;-77
2021/01/30 07:08:43;;;;;;;5.30;1.38;;;;;;;5.24;68.48;98191.38;5029669;28;20162;-78
2021/01/30 07:11:31;;;;;;;3.85;1.30;;;;;;;5.47;68.09;98181.59;5017689;28;20136;-77
2021/01/30 07:14:20;;;;;;;4.20;1.40;;;;;;;5.38;68.46;98178.25;5010884;28;20124;-77
2021/01/30 07:17:13;;;;;;;12.75;2.42;;;;;;;5.47;68.14;98183.34;5015238;28;20053;-77
2021/01/30 07:19:51;;;;;;;11.45;2.33;;;;;;;5.07;69.51;98180.34;5029456;28;20045;-78
2021/01/30 07:22:30;;;;;;;5.95;1.75;;;;;;;4.76;70.57;98175.44;5021943;28;20060;-76
2021/01/30 07:25:07;;;;;;;8.73;1.88;;;;;;;4.68;70.50;98179.81;5014640;28;20128;-76
2021/01/30 07:28:12;;;;;;;9.63;2.25;;;;;;;5.02;69.42;98185.56;5014961;28;20053;-77
2021/01/30 07:31:08;;;;;;;8.82;2.35;;;;;;;4.91;70.22;98186.50;5003802;28;20100;-77
2021/01/30 07:34:12;;;;;;;10.82;2.40;;;;;;;5.09;68.06;98194.97;5012550;28;20514;-77
2021/01/30 07:36:47;;;;;;;18.02;2.78;;;;;;;5.13;69.47;98188.88;5015169;28;20120;-77
2021/01/30 07:39:49;;;;;;;14.40;1.80;;;;;;;4.97;69.38;98184.75;5015442;28;20052;-77
2021/01/30 07:42:21;;;;;;;20.15;2.70;;;;;;;4.68;70.32;98184.13;5016518;28;20518;-77
2021/01/30 07:44:47;;;;;;;20.27;1.77;;;;;;;5.17;69.12;98192.31;5013381;28;20379;-79
2021/01/30 07:47:56;;;;;;;8.10;1.67;;;;;;;4.32;71.34;98199.03;5021276;28;20079;-78
2021/01/30 07:50:27;;;;;;;7.07;1.58;;;;;;;4.70;70.34;98185.00;5013901;28;20095;-77
2021/01/30 07:53:07;;;;;;;9.55;1.10;;;;;;;5.06;68.86;98196.72;5017817;28;20049;-78
2021/01/30 07:55:37;;;;;;;10.68;1.50;;;;;;;5.19;68.26;98199.19;5015346;28;20049;-77
2021/01/30 07:58:18;;;;;;;14.32;1.95;;;;;;;5.40;68.35;98198.09;5018824;28;20099;-79
2021/01/30 08:01:14;;;;;;;11.25;1.33;;;;;;;5.36;66.47;98195.56;5013209;28;20148;-78
2021/01/30 08:03:59;;;;;;;11.88;1.85;;;;;;;4.86;69.41;98199.50;5033449;28;20052;-78
2021/01/30 08:06:47;;;;;;;4.88;1.10;;;;;;;5.35;67.07;98196.44;5015645;28;20045;-78
2021/01/30 08:09:14;;;;;;;14.85;1.83;;;;;;;4.76;68.69;98197.84;5016700;28;20053;-78
2021/01/30 08:11:52;;;;;;;10.45;1.48;;;;;;;5.13;67.67;98201.81;5013660;28;20045;-78
2021/01/30 08:14:36;;;;;;;16.15;1.67;;;;;;;4.51;70.28;98202.34;5020829;28;20053;-79
2021/01/30 08:17:30;;;;;;;9.85;1.42;;;;;;;4.70;68.82;98214.28;5014398;28;21366;-78
2021/01/30 08:20:11;;;;;;;12.55;1.23;;;;;;;4.87;68.14;98216.75;5017151;28;20076;-78
2021/01/30 08:22:40;;;;;;;7.88;1.33;;;;;;;5.05;66.81;98210.53;5029744;28;20065;-79
2021/01/30 08:25:13;;;;;;;8.60;1.65;;;;;;;5.54;66.01;98210.91;5022016;28;20457;-78
2021/01/30 08:27:48;;;;;;;9.15;2.15;;;;;;;4.58;69.38;98211.81;5013068;28;20053;-78
2021/01/30 08:30:20;;;;;;;6.75;1.33;;;;;;;5.14;67.07;98211.31;5018347;28;20049;-78
2021/01/30 08:32:59;;;;;;;14.52;1.83;;;;;;;5.42;66.17;98213.63;5008838;28;20042;-79
2021/01/30 08:35:26;;;;;;;7.53;1.17;;;;;;;5.42;65.73;98209.28;5018369;28;20414;-78
2021/01/30 08:37:59;;;;;;;9.27;1.30;;;;;;;5.33;66.03;98224.06;5012146;28;20064;-78
2021/01/30 08:40:51;;;;;;;13.20;1.40;;;;;;;5.31;65.93;98229.28;5019835;28;20046;-78
2021/01/30 08:43:32;;;;;;;6.50;1.33;;;;;;;5.48;64.83;98219.59;5009808;28;20042;-79
2021/01/30 08:46:40;;;;;;;9.48;1.40;;;;;;;5.36;65.52;98224.06;5018262;28;20049;-77
2021/01/30 08:49:14;;;;;;;6.97;1.17;;;;;;;5.13;65.75;98222.53;4995951;28;20080;-78
2021/01/30 08:52:08;;;;;;;6.30;1.20;;;;;;;5.05;65.88;98231.25;4990964;28;20054;-76
2021/01/30 08:54:37;;;;;;;13.60;1.55;;;;;;;5.41;64.41;98222.28;4974903;28;20819;-77
2021/01/30 08:57:25;;;;;;;7.35;1.38;;;;;;;5.48;64.23;98229.09;4994928;28;20156;-77
2021/01/30 08:59:53;;;;;;;11.52;1.17;;;;;;;5.16;65.34;98222.53;4993770;28;20046;-76
2021/01/30 09:02:28;;;;;;;6.05;1.20;;;;;;;5.55;63.39;98225.56;4993084;28;20080;-77
2021/01/30 09:05:06;;;;;;;5.82;1.17;;;;;;;5.41;64.02;98230.03;4993465;28;20568;-77
2021/01/30 09:07:39;;;;;;;9.27;1.70;;;;;;;5.67;63.59;98235.78;4986952;28;20096;-77
2021/01/30 09:10:21;;;;;;;9.15;1.67;;;;;;;5.86;62.93;98234.69;4980761;28;20165;-76
2021/01/30 09:13:08;;;;;;;10.10;1.30;;;;;;;5.44;64.56;98230.00;4983881;28;20162;-78
2021/01/30 09:15:40;;;;;;;8.85;1.27;;;;;;;5.67;63.54;98228.00;4976509;28;20200;-77
2021/01/30 09:18:07;;;;;;;11.13;1.70;;;;;;;5.32;63.99;98223.22;4992883;28;20137;-77
2021/01/30 09:20:40;;;;;;;4.57;1.25;;;;;;;5.42;64.01;98227.41;4990455;28;20077;-78
2021/01/30 09:23:26;;;;;;;12.63;1.90;;;;;;;5.20;64.15;98216.44;4986878;28;20395;-78
2021/01/30 09:26:02;;;;;;;12.93;1.90;;;;;;;5.52;63.22;98215.22;5020515;28;20456;-76
2021/01/30 09:28:31;;;;;;;10.15;1.58;;;;;;;5.74;63.14;98221.03;5015565;28;20045;-78
2021/01/30 09:31:02;;;;;;;11.40;1.40;;;;;;;5.74;62.94;98223.63;5016864;28;20053;-78
2021/01/30 09:33:35;;;;;;;8.07;1.90;;;;;;;5.59;63.37;98225.53;5019734;28;20128;-76
2021/01/30 09:36:08;;;;;;;13.02;1.60;;;;;;;5.71;63.42;98227.09;5012412;28;20053;-77
2021/01/30 09:38:47;;;;;;;7.32;1.13;;;;;;;5.63;62.86;98232.38;5016899;28;20080;-78
2021/01/30 09:41:23;;;;;;;18.63;2.55;;;;;;;5.20;64.73;98225.94;5014901;28;20203;-78
2021/01/30 09:44:22;;;;;;;7.68;1.48;;;;;;;5.69;63.24;98232.31;5023424;28;20579;-78
2021/01/30 09:46:54;;;;;;;10.75;1.98;;;;;;;5.48;63.43;98235.13;5014661;28;20430;-79
2021/01/30 09:49:33;;;;;;;10.55;2.25;;;;;;;5.74;63.31;98234.00;4996749;28;20068;-78
2021/01/30 09:52:00;;;;;;;13.45;2.00;;;;;;;5.58;63.53;98231.56;4999511;28;20139;-78
2021/01/30 09:54:29;;;;;;;9.10;1.95;;;;;;;6.14;62.03;98230.03;5013295;28;20041;-78
2021/01/30 09:57:03;;;;;;;9.00;1.35;;;;;;;5.31;64.47;98224.09;5015016;28;20140;-78
2021/01/30 09:59:33;;;;;;;17.55;2.10;;;;;;;5.93;63.01;98228.59;5017138;28;20061;-78
2021/01/30 10:02:10;;;;;;;12.80;3.10;;;;;;;5.82;63.62;98225.25;4996196;28;20479;-78
2021/01/30 10:04:38;;;;;;;9.60;2.08;;;;;;;5.39;64.73;98218.84;5010782;28;20396;-78
2021/01/30 10:07:09;;;;;;;14.98;1.90;;;;;;;5.60;64.07;98223.78;4998946;28;20061;-77
2021/01/30 10:09:54;;;;;;;8.70;1.92;;;;;;;5.43;64.71;98223.97;5024663;28;20048;-77
2021/01/30 10:12:22;;;;;;;13.50;1.70;;;;;;;5.09;66.15;98228.59;5018366;28;20042;-78
2021/01/30 10:14:56;;;;;;;11.90;1.85;;;;;;;5.30;66.00;98240.50;5020199;28;20041;-78
2021/01/30 10:17:43;;;;;;;14.93;1.27;;;;;;;4.94;66.77;98236.50;5019778;28;20139;-77
2021/01/30 10:20:14;;;;;;;7.97;1.40;;;;;;;5.22;65.75;98245.78;5024408;28;20037;-79
2021/01/30 10:22:49;;;;;;;13.25;2.97;;;;;;;5.09;66.31;98233.78;5014040;28;20089;-78
2021/01/30 10:25:21;;;;;;;;;;;;;;;4.83;66.97;98231.44;5025211;28;20041;-78
2021/01/30 10:27:47;;;;;;;11.13;1.95;;;;;;;5.40;65.53;98242.13;5014150;28;19969;-78
2021/01/30 10:30:18;;;;;;;12.50;1.50;;;;;;;5.50;65.33;98238.56;5024168;28;20111;-78
2021/01/30 10:32:56;;;;;;;7.07;1.65;;;;;;;5.16;66.27;98248.41;4999904;28;20057;-78
2021/01/30 10:35:38;;;;;;;12.77;1.85;;;;;;;5.39;65.58;98253.34;5022669;28;20140;-78
2021/01/30 10:38:18;;;;;;;12.35;1.70;;;;;;;5.40;65.45;98255.06;5015405;28;20041;-78
2021/01/30 10:40:54;;;;;;;13.15;1.83;;;;;;;5.77;64.65;98263.31;5031675;28;20187;-78
2021/01/30 10:43:27;;;;;;;16.33;1.90;;;;;;;5.59;65.20;98251.44;5020169;28;20042;-78
2021/01/30 10:46:00;;;;;;;13.05;1.73;;;;;;;5.91;64.46;98258.00;5020142;28;20041;-77
2021/01/30 10:48:33;;;;;;;11.57;2.05;;;;;;;5.26;66.62;98257.81;5019762;28;20052;-78
2021/01/30 10:51:09;;;;;;;11.32;1.98;;;;;;;5.40;66.39;98261.97;5032862;28;20065;-78
2021/01/30 10:53:38;;;;;;;8.25;1.60;;;;;;;5.54;65.80;98260.97;5016238;28;20080;-78
2021/01/30 10:56:19;;;;;;;10.05;2.08;;;;;;;5.78;65.94;98271.94;5016801;28;20151;-78
2021/01/30 10:58:50;;;;;;;10.38;1.80;;;;;;;5.57;65.77;98275.63;5010374;28;20136;-78
2021/01/30 11:01:17;;;;;;;8.32;1.67;;;;;;;5.63;66.20;98263.47;5015660;28;20046;-79
2021/01/30 11:03:52;;;;;;;8.30;1.45;;;;;;;5.30;67.32;98278.47;5014824;28;20053;-78
2021/01/30 11:06:31;;;;;;;9.98;1.60;;;;;;;4.91;69.75;98265.00;5026820;28;20045;-78
2021/01/30 11:09:20;;;;;;;13.45;2.05;;;;;;;4.89;69.99;98266.75;5012788;28;20049;-78
2021/01/30 11:11:51;;;;;;;6.53;1.25;;;;;;;5.18;68.47;98276.88;5009448;28;20136;-80
2021/01/30 11:14:19;;;;;;;9.93;2.23;;;;;;;5.13;68.38;98273.47;5014704;28;20081;-79
2021/01/30 11:16:46;;;;;;;9.60;1.48;;;;;;;5.51;67.50;98273.97;5002984;28;20279;-77
2021/01/30 11:19:23;;;;;;;15.07;2.08;;;;;;;5.09;68.10;98279.50;5014317;28;20076;-78
2021/01/30 11:22:01;;;;;;;3.83;1.15;;;;;;;5.43;67.72;98273.16;5028851;28;20463;-78
2021/01/30 11:24:34;;;;;;;8.75;1.73;;;;;;;5.04;67.55;98286.47;5016962;28;20050;-78
2021/01/30 11:27:01;;;;;;;13.40;2.20;;;;;;;5.38;67.08;98276.66;5018628;28;20057;-78
2021/01/30 11:29:43;;;;;;;7.72;1.52;;;;;;;5.06;67.39;98272.66;5003591;28;20171;-77
2021/01/30 11:32:21;;;;;;;4.57;1.40;;;;;;;5.39;66.83;98273.22;5017782;28;20060;-77
2021/01/30 11:34:55;;;;;;;13.30;1.65;;;;;;;5.17;67.04;98277.75;5008531;28;20053;-78
2021/01/30 11:37:23;;;;;;;10.73;3.53;;;;;;;5.32;67.39;98289.69;5019578;28;20160;-77
2021/01/30 11:39:50;;;;;;;5.38;1.27;;;;;;;5.23;68.36;98282.84;5011124;28;20216;-76
2021/01/30 11:42:16;;;;;;;20.73;2.13;;;;;;;4.63;70.61;98279.00;5016726;28;20069;-80
2021/01/30 11:44:43;;;;;;;13.48;1.90;;;;;;;5.13;69.76;98282.06;5009676;28;20056;-77
2021/01/30 11:47:10;;;;;;;14.95;1.80;;;;;;;4.91;70.38;98284.84;5019105;28;20053;-77
2021/01/30 11:49:37;;;;;;;6.03;1.40;;;;;;;5.15;70.76;98287.25;5024855;28;20053;-77
2021/01/30 11:52:04;;;;;;;9.57;1.95;;;;;;;5.23;70.55;98286.28;5017725;28;20057;-78
2021/01/30 11:54:31;;;;;;;11.77;1.77;;;;;;;5.47;69.89;98299.88;5008514;28;20040;-79
2021/01/30 11:56:58;;;;;;;11.77;1.55;;;;;;;5.33;70.28;98294.84;4993194;28;20142;-76
2021/01/30 11:59:26;;;;;;;9.98;1.73;;;;;;;5.10;70.83;98295.03;5014266;28;20060;-78
2021/01/30 12:01:54;;;;;;;18.23;2.38;;;;;;;4.96;70.18;98290.84;5017697;28;20054;-77
2021/01/30 12:04:21;;;;;;;17.60;2.47;;;;;;;4.80;71.67;98288.38;5019497;28;20140;-78
2021/01/30 12:06:47;;;;;;;17.92;2.00;;;;;;;5.02;71.34;98291.66;4990673;28;20118;-77
2021/01/30 12:09:14;;;;;;;11.05;1.70;;;;;;;5.00;70.55;98301.16;5014467;28;20053;-77
2021/01/30 12:11:41;;;;;;;16.63;2.22;;;;;;;5.03;70.34;98305.47;4996569;28;20125;-78
2021/01/30 12:14:08;;;;;;;11.13;1.88;;;;;;;4.67;71.28;98302.25;5021163;28;20041;-78
2021/01/30 12:16:34;;;;;;;8.55;2.20;;;;;;;5.48;69.54;98314.56;5008743;28;20050;-78
2021/01/30 12:19:01;;;;;;;8.18;1.90;;;;;;;5.33;69.61;98297.44;5026868;28;20049;-79
2021/01/30 12:21:28;;;;;;;14.20;2.13;;;;;;;5.08;70.45;98306.28;5006925;28;20050;-79